createdAt,value
2022-07-26T00:01:22.317Z,3.30
2022-07-26T00:03:51.771Z,2.08
2022-07-26T00:06:19.968Z,2.40
2022-07-26T00:08:48.739Z,2.60
2022-07-26T00:11:19.687Z,2.58
2022-07-26T00:13:49.484Z,2.55
2022-07-26T00:16:17.877Z,2.03
2022-07-26T00:18:47.470Z,2.15
2022-07-26T00:21:15.746Z,2.70
2022-07-26T00:23:43.903Z,2.50
2022-07-26T00:26:12.056Z,2.45
2022-07-26T00:28:42.871Z,2.47
2022-07-26T00:31:12.930Z,2.67
2022-07-26T00:33:41.410Z,2.35
2022-07-26T00:36:09.951Z,2.60
2022-07-26T00:38:38.386Z,2.33
2022-07-26T00:41:06.877Z,3.10
2022-07-26T00:43:35.031Z,2.60
2022-07-26T00:46:04.135Z,3.00
2022-07-26T00:48:33.675Z,2.22
2022-07-26T00:51:02.136Z,2.50
2022-07-26T00:53:30.192Z,2.72
2022-07-26T00:55:58.434Z,2.30
2022-07-26T00:58:26.543Z,2.33
2022-07-26T01:00:54.907Z,2.58
2022-07-26T01:03:23.165Z,2.72
2022-07-26T01:05:58.760Z,2.33
2022-07-26T01:08:26.951Z,2.58
2022-07-26T01:10:55.460Z,2.88
2022-07-26T01:13:26.587Z,2.63
2022-07-26T01:15:55.138Z,2.42
2022-07-26T01:18:23.321Z,2.42
2022-07-26T01:20:52.987Z,2.15
2022-07-26T01:23:22.475Z,2.30
2022-07-26T01:25:50.703Z,2.40
2022-07-26T01:28:20.538Z,2.20
2022-07-26T01:30:49.596Z,2.03
2022-07-26T01:33:17.975Z,2.00
2022-07-26T01:35:46.342Z,2.03
2022-07-26T01:38:15.577Z,1.88
2022-07-26T01:40:44.981Z,2.13
2022-07-26T01:43:13.076Z,2.22
2022-07-26T01:45:41.266Z,2.20
2022-07-26T01:48:09.601Z,2.05
2022-07-26T01:50:38.335Z,2.40
2022-07-26T01:53:06.608Z,3.00
2022-07-26T01:55:34.809Z,3.08
2022-07-26T01:58:05.083Z,2.78
2022-07-26T02:00:33.477Z,3.88
2022-07-26T02:03:01.813Z,2.83
2022-07-26T02:05:30.000Z,2.90
2022-07-26T02:07:58.442Z,2.97
2022-07-26T02:10:49.634Z,2.78
2022-07-26T02:13:19.496Z,2.78
2022-07-26T02:15:47.768Z,3.78
2022-07-26T02:18:15.907Z,3.20
2022-07-26T02:20:44.030Z,2.58
2022-07-26T02:23:12.480Z,3.22
2022-07-26T02:25:40.582Z,2.72
2022-07-26T02:28:08.749Z,2.95
2022-07-26T02:30:39.449Z,2.80
2022-07-26T02:33:07.668Z,2.33
2022-07-26T02:35:35.803Z,3.10
2022-07-26T02:38:04.753Z,2.58
2022-07-26T02:40:33.615Z,2.47
2022-07-26T02:43:01.864Z,2.53
2022-07-26T02:45:30.029Z,2.58
2022-07-26T02:47:59.569Z,2.42
2022-07-26T02:50:29.208Z,2.40
2022-07-26T02:52:57.849Z,3.13
2022-07-26T02:55:27.211Z,2.60
2022-07-26T02:57:55.626Z,2.83
2022-07-26T03:00:25.852Z,2.78
2022-07-26T03:02:54.391Z,2.63
2022-07-26T03:05:24.218Z,2.78
2022-07-26T03:07:52.349Z,2.97
2022-07-26T03:10:20.487Z,2.88
2022-07-26T03:12:52.366Z,2.90
2022-07-26T03:15:20.887Z,3.03
2022-07-26T03:17:50.003Z,2.72
2022-07-26T03:20:18.373Z,2.50
2022-07-26T03:22:47.822Z,2.60
2022-07-26T03:25:16.093Z,3.05
2022-07-26T03:27:44.237Z,2.70
2022-07-26T03:30:13.687Z,2.95
2022-07-26T03:32:41.920Z,2.55
2022-07-26T03:35:10.488Z,2.22
2022-07-26T03:37:45.687Z,2.65
2022-07-26T03:40:17.137Z,2.60
2022-07-26T03:42:45.522Z,2.65
2022-07-26T03:45:14.626Z,2.80
2022-07-26T03:47:42.768Z,2.53
2022-07-26T03:50:13.719Z,2.70
2022-07-26T03:52:42.418Z,2.58
2022-07-26T03:55:28.598Z,2.70
2022-07-26T03:57:58.337Z,2.10
2022-07-26T04:00:26.588Z,1.98
2022-07-26T04:02:55.015Z,2.22
2022-07-26T04:05:23.805Z,2.30
2022-07-26T04:07:54.466Z,2.03
2022-07-26T04:10:24.734Z,2.00
2022-07-26T04:12:53.305Z,2.67
2022-07-26T04:15:23.091Z,2.20
2022-07-26T04:17:51.248Z,2.55
2022-07-26T04:20:19.562Z,2.15
2022-07-26T04:22:47.710Z,2.20
2022-07-26T04:25:15.931Z,2.20
2022-07-26T04:27:44.120Z,2.10
2022-07-26T04:30:15.510Z,2.70
2022-07-26T04:32:46.847Z,2.10
2022-07-26T04:35:16.479Z,2.13
2022-07-26T04:37:45.529Z,2.33
2022-07-26T04:40:21.492Z,1.95
2022-07-26T04:42:50.910Z,1.73
2022-07-26T04:45:19.506Z,2.42
2022-07-26T04:47:50.755Z,2.10
2022-07-26T04:50:19.787Z,1.98
2022-07-26T04:52:48.099Z,1.90
2022-07-26T04:55:17.038Z,2.83
2022-07-26T04:57:47.537Z,1.95
2022-07-26T05:00:22.826Z,1.75
2022-07-26T05:02:55.011Z,2.38
2022-07-26T05:05:23.393Z,1.95
2022-07-26T05:07:53.461Z,1.63
2022-07-26T05:10:22.980Z,1.75
2022-07-26T05:12:51.164Z,1.77
2022-07-26T05:15:19.253Z,1.40
2022-07-26T05:17:48.458Z,1.48
2022-07-26T05:20:19.114Z,1.25
2022-07-26T05:22:47.690Z,1.27
2022-07-26T05:25:15.947Z,1.58
2022-07-26T05:27:44.099Z,1.60
2022-07-26T05:30:12.748Z,1.25
2022-07-26T05:32:40.850Z,2.80
2022-07-26T05:35:09.723Z,1.20
2022-07-26T05:37:39.532Z,1.25
2022-07-26T05:40:08.533Z,1.30
2022-07-26T05:42:36.689Z,1.00
2022-07-26T05:45:05.508Z,1.23
2022-07-26T05:47:33.716Z,0.93
2022-07-26T05:50:01.843Z,1.23
2022-07-26T05:52:30.092Z,0.93
2022-07-26T05:54:59.704Z,0.90
2022-07-26T05:57:27.881Z,1.08
2022-07-26T05:59:56.009Z,0.98
2022-07-26T06:02:24.237Z,0.98
2022-07-26T06:04:52.442Z,1.02
2022-07-26T06:07:20.573Z,1.00
2022-07-26T06:09:48.699Z,0.95
2022-07-26T06:12:18.216Z,1.17
2022-07-26T06:14:46.549Z,0.82
2022-07-26T06:17:14.730Z,1.13
2022-07-26T06:19:47.390Z,0.93
2022-07-26T06:22:17.582Z,0.73
2022-07-26T06:24:45.679Z,0.98
2022-07-26T06:27:13.772Z,1.08
2022-07-26T06:29:43.309Z,0.90
2022-07-26T06:32:11.461Z,0.70
2022-07-26T06:34:39.680Z,2.10
2022-07-26T06:37:07.814Z,0.80
2022-07-26T06:39:36.014Z,0.90
2022-07-26T06:42:04.174Z,0.70
2022-07-26T06:44:32.321Z,0.80
2022-07-26T06:47:01.796Z,1.05
2022-07-26T06:49:29.981Z,0.90
2022-07-26T06:51:58.211Z,0.80
2022-07-26T06:54:26.450Z,0.80
2022-07-26T06:56:54.627Z,0.80
2022-07-26T06:59:22.789Z,0.68
2022-07-26T07:01:51.426Z,1.33
2022-07-26T07:04:29.038Z,0.70
2022-07-26T07:06:57.568Z,1.00
2022-07-26T07:09:25.975Z,0.70
2022-07-26T07:12:02.444Z,0.60
2022-07-26T07:14:35.578Z,0.73
2022-07-26T07:17:03.752Z,0.95
2022-07-26T07:19:42.754Z,0.85
2022-07-26T07:22:12.355Z,0.88
2022-07-26T07:24:41.739Z,0.80
2022-07-26T07:27:10.651Z,0.70
2022-07-26T07:29:41.185Z,0.70
2022-07-26T07:32:18.381Z,0.73
2022-07-26T07:34:49.834Z,0.60
2022-07-26T07:37:20.015Z,0.77
2022-07-26T07:39:49.919Z,1.13
2022-07-26T07:42:19.540Z,0.70
2022-07-26T07:44:47.988Z,0.57
2022-07-26T07:47:16.040Z,0.60
2022-07-26T07:49:44.642Z,0.63
2022-07-26T07:52:14.139Z,0.70
2022-07-26T07:54:42.371Z,1.08
2022-07-26T07:57:13.800Z,1.00
2022-07-26T07:59:42.719Z,0.70
2022-07-26T08:02:12.767Z,0.90
2022-07-26T08:04:41.212Z,0.75
2022-07-26T08:07:09.556Z,0.52
2022-07-26T08:09:43.154Z,0.60
2022-07-26T08:12:12.269Z,1.40
2022-07-26T08:14:41.443Z,1.00
2022-07-26T08:17:09.795Z,0.80
2022-07-26T08:19:41.815Z,0.65
2022-07-26T08:22:11.172Z,0.90
2022-07-26T08:24:40.971Z,0.70
2022-07-26T08:27:09.287Z,0.52
2022-07-26T08:29:37.524Z,0.50
2022-07-26T08:32:06.363Z,0.60
2022-07-26T08:34:34.556Z,0.50
2022-07-26T08:37:18.577Z,0.70
2022-07-26T08:39:48.672Z,0.70
2022-07-26T08:42:23.032Z,0.47
2022-07-26T08:44:51.874Z,0.50
2022-07-26T08:47:36.231Z,0.80
2022-07-26T08:50:09.857Z,0.40
2022-07-26T08:52:40.856Z,0.70
2022-07-26T08:55:11.224Z,0.40
2022-07-26T08:57:39.440Z,0.70
2022-07-26T09:00:22.058Z,0.60
2022-07-26T09:02:50.349Z,0.65
2022-07-26T09:05:20.463Z,0.73
2022-07-26T09:07:48.620Z,0.75
2022-07-26T09:10:18.094Z,0.47
2022-07-26T09:12:46.550Z,0.60
2022-07-26T09:15:25.369Z,0.95
2022-07-26T09:17:56.341Z,0.80
2022-07-26T09:20:28.491Z,0.70
2022-07-26T09:23:03.122Z,0.70
2022-07-26T09:25:35.320Z,0.40
2022-07-26T09:28:05.326Z,0.95
2022-07-26T09:30:33.831Z,0.40
2022-07-26T09:33:05.105Z,0.57
2022-07-26T09:35:52.191Z,0.82
2022-07-26T09:38:21.029Z,0.60
2022-07-26T09:40:51.677Z,0.60
2022-07-26T09:43:23.887Z,0.30
2022-07-26T09:46:05.540Z,0.30
2022-07-26T09:49:07.102Z,0.40
2022-07-26T09:51:39.227Z,0.60
2022-07-26T09:54:08.790Z,0.30
2022-07-26T09:56:46.727Z,0.50
2022-07-26T09:59:16.356Z,0.45
2022-07-26T10:01:45.595Z,0.40
2022-07-26T10:04:14.816Z,0.57
2022-07-26T10:06:44.573Z,0.50
2022-07-26T10:09:13.730Z,0.57
2022-07-26T10:11:47.122Z,0.50
2022-07-26T10:14:40.065Z,0.50
2022-07-26T10:17:51.010Z,0.47
2022-07-26T10:20:51.705Z,0.57
2022-07-26T10:23:44.143Z,0.30
2022-07-26T10:26:35.030Z,0.52
2022-07-26T10:29:27.367Z,0.38
2022-07-26T10:32:15.920Z,0.30
2022-07-26T10:34:44.867Z,0.40
2022-07-26T10:37:23.113Z,0.82
2022-07-26T10:40:11.371Z,0.40
2022-07-26T10:42:46.377Z,0.50
2022-07-26T10:45:19.731Z,0.98
2022-07-26T10:48:15.284Z,0.40
2022-07-26T10:50:44.968Z,0.57
2022-07-26T10:53:19.799Z,0.40
2022-07-26T10:55:50.136Z,0.57
2022-07-26T10:58:23.598Z,0.50
2022-07-26T11:01:00.628Z,0.20
2022-07-26T11:03:39.018Z,0.40
2022-07-26T11:06:15.185Z,0.50
2022-07-26T11:08:47.945Z,0.30
2022-07-26T11:11:29.000Z,0.28
2022-07-26T11:14:07.447Z,0.40
2022-07-26T11:16:40.866Z,0.40
2022-07-26T11:19:16.737Z,0.30
2022-07-26T11:21:46.543Z,0.43
2022-07-26T11:24:15.143Z,0.35
2022-07-26T11:26:44.722Z,0.30
2022-07-26T11:29:17.606Z,0.40
2022-07-26T11:34:33.213Z,0.30
2022-07-26T11:37:04.239Z,0.60
2022-07-26T11:39:34.202Z,0.60
2022-07-26T11:42:04.228Z,0.30
2022-07-26T11:44:34.234Z,0.40
2022-07-26T11:47:12.555Z,0.60
2022-07-26T11:49:59.892Z,0.60
2022-07-26T11:52:31.864Z,0.80
2022-07-26T11:55:00.500Z,0.55
2022-07-26T11:57:30.219Z,0.50
2022-07-26T12:00:01.505Z,0.20
2022-07-26T12:02:39.683Z,0.60
2022-07-26T12:05:16.159Z,0.63
2022-07-26T12:07:57.373Z,0.60
2022-07-26T12:10:25.774Z,0.52
2022-07-26T12:13:08.451Z,0.40
2022-07-26T12:15:47.727Z,0.40
2022-07-26T12:18:24.501Z,0.52
2022-07-26T12:21:06.725Z,0.52
2022-07-26T12:23:42.969Z,1.17
2022-07-26T12:26:32.416Z,0.52
2022-07-26T12:29:20.973Z,0.60
2022-07-26T12:32:02.753Z,0.40
2022-07-26T12:34:31.019Z,0.50
2022-07-26T12:37:16.149Z,0.75
2022-07-26T12:40:01.338Z,0.30
2022-07-26T12:42:33.094Z,0.57
2022-07-26T12:45:02.412Z,0.45
2022-07-26T12:47:32.123Z,0.55
2022-07-26T12:50:01.420Z,0.55
2022-07-26T12:52:30.054Z,0.45
2022-07-26T12:54:58.241Z,0.60
2022-07-26T12:57:27.207Z,0.50
2022-07-26T12:59:56.253Z,0.70
2022-07-26T13:02:25.054Z,0.93
2022-07-26T13:05:00.021Z,0.90
2022-07-26T13:07:28.773Z,0.90
2022-07-26T13:10:22.463Z,0.68
2022-07-26T13:12:45.150Z,0.90
2022-07-26T13:15:13.161Z,0.60
2022-07-26T13:17:42.083Z,0.90
2022-07-26T13:20:12.024Z,0.88
2022-07-26T13:22:41.365Z,0.73
2022-07-26T13:25:10.649Z,0.47
2022-07-26T13:27:44.326Z,0.47
2022-07-26T13:32:43.149Z,0.95
2022-07-26T13:35:12.700Z,0.70
2022-07-26T13:37:41.130Z,0.68
2022-07-26T13:40:10.448Z,0.75
2022-07-26T13:42:39.126Z,0.90
2022-07-26T13:45:08.836Z,0.50
2022-07-26T13:47:37.090Z,0.80
2022-07-26T13:50:05.972Z,0.68
2022-07-26T13:52:37.359Z,0.82
2022-07-26T13:55:06.621Z,0.73
2022-07-26T13:57:49.157Z,0.98
2022-07-26T14:00:23.387Z,0.90
2022-07-26T14:02:51.649Z,1.00
2022-07-26T14:05:20.203Z,0.57
2022-07-26T14:07:49.775Z,0.80
2022-07-26T14:10:18.155Z,0.77
2022-07-26T14:12:47.741Z,0.85
2022-07-26T14:15:21.609Z,0.63
2022-07-26T14:17:50.042Z,0.77
2022-07-26T14:20:18.263Z,0.52
2022-07-26T14:22:46.593Z,0.65
2022-07-26T14:25:16.160Z,0.68
2022-07-26T14:27:44.246Z,0.85
2022-07-26T14:30:13.855Z,0.80
2022-07-26T14:32:42.131Z,0.82
2022-07-26T14:35:11.017Z,0.85
2022-07-26T14:37:44.053Z,0.77
2022-07-26T14:40:17.327Z,0.63
2022-07-26T14:42:46.506Z,0.77
2022-07-26T14:45:15.433Z,0.55
2022-07-26T14:47:43.647Z,1.05
2022-07-26T14:50:13.629Z,0.55
2022-07-26T14:52:43.634Z,0.70
2022-07-26T14:55:12.272Z,0.90
2022-07-26T14:57:42.263Z,0.80
2022-07-26T15:00:13.007Z,0.70
2022-07-26T15:02:42.282Z,0.52
2022-07-26T15:05:11.687Z,0.70
2022-07-26T15:07:41.243Z,0.60
2022-07-26T15:10:11.664Z,0.90
2022-07-26T15:12:42.211Z,0.65
2022-07-26T15:15:11.719Z,1.00
2022-07-26T15:17:39.858Z,1.30
2022-07-26T15:20:09.221Z,0.80
2022-07-26T15:22:37.705Z,0.80
2022-07-26T15:25:06.600Z,0.80
2022-07-26T15:27:34.900Z,0.80
2022-07-26T15:30:09.136Z,0.90
2022-07-26T15:32:41.799Z,0.85
2022-07-26T15:35:14.047Z,1.02
2022-07-26T15:37:43.689Z,0.60
2022-07-26T15:40:12.884Z,1.02
2022-07-26T15:42:44.215Z,0.55
2022-07-26T15:45:14.223Z,0.85
2022-07-26T15:48:11.150Z,0.77
2022-07-26T15:50:30.826Z,1.08
2022-07-26T15:52:58.930Z,0.65
2022-07-26T15:55:27.041Z,0.93
2022-07-26T15:57:55.220Z,0.90
2022-07-26T16:00:25.268Z,0.50
2022-07-26T16:02:53.425Z,0.70
2022-07-26T16:05:21.577Z,0.52
2022-07-26T16:07:49.820Z,0.68
2022-07-26T16:10:17.903Z,1.05
2022-07-26T16:12:46.221Z,0.90
2022-07-26T16:15:15.224Z,0.60
2022-07-26T16:17:44.833Z,1.02
2022-07-26T16:20:13.305Z,0.82
2022-07-26T16:22:42.022Z,1.00
2022-07-26T16:25:13.171Z,0.98
2022-07-26T16:27:42.610Z,1.08
2022-07-26T16:30:12.224Z,0.75
2022-07-26T16:32:40.363Z,0.93
2022-07-26T16:35:10.989Z,1.13
2022-07-26T16:37:39.764Z,0.82
2022-07-26T16:40:09.622Z,1.10
2022-07-26T16:42:37.929Z,0.95
2022-07-26T16:45:06.697Z,1.00
2022-07-26T16:47:34.864Z,0.82
2022-07-26T16:50:03.181Z,0.70
2022-07-26T16:52:32.975Z,1.30
2022-07-26T16:55:01.531Z,0.90
2022-07-26T16:57:29.818Z,0.93
2022-07-26T16:59:57.964Z,0.80
2022-07-26T17:02:26.113Z,0.95
2022-07-26T17:04:57.333Z,0.98
2022-07-26T17:07:26.381Z,1.00
2022-07-26T17:09:56.993Z,0.88
2022-07-26T17:12:25.856Z,1.40
2022-07-26T17:14:54.202Z,1.30
2022-07-26T17:17:22.305Z,1.02
2022-07-26T17:19:50.511Z,1.67
2022-07-26T17:22:18.855Z,1.08
2022-07-26T17:24:47.500Z,1.00
2022-07-26T17:27:18.176Z,1.20
2022-07-26T17:29:46.371Z,1.20
2022-07-26T17:32:14.515Z,1.20
2022-07-26T17:34:42.721Z,1.05
2022-07-26T17:37:12.650Z,1.10
2022-07-26T17:39:52.401Z,0.95
2022-07-26T17:42:23.317Z,1.08
2022-07-26T17:44:52.140Z,1.30
2022-07-26T17:47:28.945Z,1.30
2022-07-26T17:50:13.815Z,1.00
2022-07-26T17:52:48.258Z,1.20
2022-07-26T17:55:19.008Z,1.02
2022-07-26T17:57:50.349Z,1.85
2022-07-26T18:00:19.889Z,1.70
2022-07-26T18:02:48.356Z,1.50
2022-07-26T18:05:18.434Z,1.77
2022-07-26T18:07:46.845Z,1.70
2022-07-26T18:10:15.398Z,1.80
2022-07-26T18:12:43.598Z,1.42
2022-07-26T18:15:13.474Z,1.50
2022-07-26T18:17:41.537Z,1.63
2022-07-26T18:20:11.092Z,1.38
2022-07-26T18:22:39.283Z,1.80
2022-07-26T18:25:08.413Z,1.52
2022-07-26T18:27:36.767Z,1.55
2022-07-26T18:30:05.792Z,1.52
2022-07-26T18:32:35.739Z,1.40
2022-07-26T18:35:03.867Z,1.88
2022-07-26T18:37:32.032Z,1.60
2022-07-26T18:40:00.990Z,1.30
2022-07-26T18:42:29.161Z,1.45
2022-07-26T18:44:57.445Z,1.27
2022-07-26T18:47:25.560Z,1.38
2022-07-26T18:49:55.054Z,1.52
2022-07-26T18:52:31.856Z,1.38
2022-07-26T18:55:02.255Z,1.40
2022-07-26T18:57:30.501Z,1.60
2022-07-26T18:59:58.636Z,1.75
2022-07-26T19:02:26.992Z,1.60
2022-07-26T19:04:56.452Z,1.50
2022-07-26T19:07:24.546Z,1.42
2022-07-26T19:09:58.157Z,1.55
2022-07-26T19:12:27.436Z,1.30
2022-07-26T19:14:55.584Z,1.17
2022-07-26T19:17:23.985Z,1.10
2022-07-26T19:19:52.244Z,1.48
2022-07-26T19:22:22.114Z,1.00
2022-07-26T19:24:50.827Z,1.25
2022-07-26T19:27:19.413Z,1.60
2022-07-26T19:29:48.604Z,1.20
2022-07-26T19:32:16.911Z,1.30
2022-07-26T19:34:45.057Z,1.85
2022-07-26T19:37:13.368Z,1.33
2022-07-26T19:39:44.099Z,1.50
2022-07-26T19:42:12.254Z,1.83
2022-07-26T19:44:40.366Z,1.35
2022-07-26T19:47:08.581Z,1.20
2022-07-26T19:49:36.820Z,1.65
2022-07-26T19:52:09.688Z,1.35
2022-07-26T19:54:39.661Z,1.35
2022-07-26T19:57:10.223Z,1.80
2022-07-26T19:59:38.366Z,1.13
2022-07-26T20:02:06.729Z,1.48
2022-07-26T20:04:35.061Z,1.50
2022-07-26T20:07:04.138Z,1.30
2022-07-26T20:09:32.720Z,1.67
2022-07-26T20:12:01.541Z,1.30
2022-07-26T20:14:31.267Z,1.48
2022-07-26T20:16:59.449Z,1.40
2022-07-26T20:19:28.080Z,2.60
2022-07-26T20:21:56.380Z,3.45
2022-07-26T20:24:24.575Z,2.30
2022-07-26T20:26:52.785Z,1.30
2022-07-26T20:29:20.935Z,1.30
2022-07-26T20:31:50.548Z,1.27
2022-07-26T20:34:18.753Z,1.17
2022-07-26T20:36:46.961Z,1.35
2022-07-26T20:39:15.624Z,1.30
2022-07-26T20:41:43.851Z,1.42
2022-07-26T20:44:14.281Z,1.63
2022-07-26T20:46:42.642Z,1.10
2022-07-26T20:49:12.574Z,1.45
2022-07-26T20:51:41.216Z,1.20
2022-07-26T20:54:10.328Z,1.15
2022-07-26T20:56:39.164Z,1.17
2022-07-26T20:59:07.561Z,0.90
2022-07-26T21:01:35.891Z,1.83
2022-07-26T21:04:04.400Z,1.85
2022-07-26T21:06:34.313Z,2.45
2022-07-26T21:09:08.908Z,2.35
2022-07-26T21:11:38.682Z,1.92
2022-07-26T21:14:06.945Z,2.20
2022-07-26T21:16:35.184Z,1.92
2022-07-26T21:19:03.380Z,1.92
2022-07-26T21:21:34.109Z,2.70
2022-07-26T21:24:02.359Z,2.20
2022-07-26T21:26:30.844Z,2.30
2022-07-26T21:28:59.169Z,1.80
2022-07-26T21:31:27.567Z,2.03
2022-07-26T21:33:55.830Z,1.85
2022-07-26T21:36:24.293Z,2.30
2022-07-26T21:38:53.934Z,1.75
2022-07-26T21:41:22.487Z,1.75
2022-07-26T21:43:50.618Z,1.63
2022-07-26T21:46:18.938Z,1.67
2022-07-26T21:48:47.127Z,1.75
2022-07-26T21:51:15.186Z,1.98
2022-07-26T21:53:43.294Z,1.95
2022-07-26T21:56:12.818Z,2.10
2022-07-26T21:58:41.226Z,1.60
2022-07-26T22:01:12.530Z,1.80
2022-07-26T22:03:42.201Z,1.48
2022-07-26T22:06:11.388Z,1.80
2022-07-26T22:08:39.718Z,1.58
2022-07-26T22:11:07.874Z,1.75
2022-07-26T22:13:37.883Z,1.50
2022-07-26T22:16:07.453Z,1.80
2022-07-26T22:18:35.597Z,1.33
2022-07-26T22:21:03.944Z,1.90
2022-07-26T22:23:32.272Z,1.20
2022-07-26T22:26:02.714Z,1.45
2022-07-26T22:28:32.299Z,1.55
2022-07-26T22:31:02.493Z,1.48
2022-07-26T22:33:30.717Z,1.08
2022-07-26T22:35:58.877Z,1.25
2022-07-26T22:38:26.969Z,1.70
2022-07-26T22:40:55.019Z,1.35
2022-07-26T22:43:23.175Z,1.80
2022-07-26T22:45:51.648Z,1.17
2022-07-26T22:48:21.302Z,1.23
2022-07-26T22:50:49.931Z,1.20
2022-07-26T22:53:18.025Z,1.88
2022-07-26T22:55:46.105Z,1.35
2022-07-26T22:58:17.508Z,1.17
2022-07-26T23:00:45.693Z,0.95
2022-07-26T23:03:19.490Z,0.90
2022-07-26T23:11:08.784Z,1.30
2022-07-26T23:13:37.283Z,1.10
2022-07-26T23:16:06.393Z,1.17
2022-07-26T23:18:35.472Z,1.20
2022-07-26T23:21:05.376Z,1.60
2022-07-26T23:23:33.554Z,1.17
2022-07-26T23:26:02.098Z,1.10
2022-07-26T23:28:37.602Z,1.40
2022-07-26T23:31:08.990Z,1.08
2022-07-26T23:33:52.633Z,1.67
2022-07-26T23:38:53.673Z,2.03
2022-07-26T23:41:22.419Z,2.70
2022-07-26T23:43:50.555Z,2.38
2022-07-26T23:46:18.929Z,2.28
2022-07-26T23:48:47.455Z,2.85
2022-07-26T23:51:15.788Z,2.85
2022-07-26T23:53:45.434Z,2.63
2022-07-26T23:56:14.084Z,1.92
2022-07-26T23:58:42.474Z,1.42
